Time;durP1;ratioP1;P1;durP2;ratioP2;P2;SDS_P1;SDS_P2;PMS_P1;PMS_P2;Temp;Humidity;BMP_temperature;BMP_pressure;BME280_temperature;BME280_humidity;BME280_pressure;Samples;Min_cycle;Max_cycle;Signal;HPM_P1;HPM_P2
2023/05/26 00:00:19;;;;;;;50.00;10.20;;;;;;;;;;5029944;28;20083;-62
2023/05/26 00:02:46;;;;;;;45.73;10.57;;;;;;;;;;5029764;28;20060;-62
2023/05/26 00:05:13;;;;;;;45.27;7.80;;;;;;;;;;5029772;28;20049;-62
2023/05/26 00:07:40;;;;;;;38.17;9.00;;;;;;;;;;5029085;28;20038;-62
2023/05/26 00:10:10;;;;;;;39.47;9.20;;;;;;;;;;5029719;28;20056;-62
2023/05/26 00:12:36;;;;;;;47.77;8.67;;;;;;;;;;5027627;28;20065;-62
2023/05/26 00:15:03;;;;;;;40.53;8.27;;;;;;;;;;5028214;28;20049;-62
2023/05/26 00:17:29;;;;;;;32.53;8.43;;;;;;;;;;5028074;28;20124;-62
2023/05/26 00:19:59;;;;;;;31.47;7.07;;;;;;;;;;5029498;28;20136;-62
2023/05/26 00:22:26;;;;;;;62.97;8.40;;;;;;;;;;5028720;28;20567;-62
2023/05/26 00:24:52;;;;;;;43.03;7.90;;;;;;;;;;5029469;28;20416;-62
2023/05/26 00:27:18;;;;;;;53.70;8.37;;;;;;;;;;5029328;28;20092;-62
2023/05/26 00:29:44;;;;;;;45.97;8.53;;;;;;;;;;5029140;28;20049;-62
2023/05/26 00:32:11;;;;;;;42.37;7.97;;;;;;;;;;5028811;28;20512;-62
2023/05/26 00:34:37;;;;;;;48.13;11.43;;;;;;;;;;5029037;28;20050;-62
2023/05/26 00:37:04;;;;;;;39.40;8.83;;;;;;;;;;5029305;28;20049;-61
2023/05/26 00:39:30;;;;;;;31.23;8.03;;;;;;;;;;5031954;28;20116;-62
2023/05/26 00:41:57;;;;;;;61.17;11.13;;;;;;;;;;5028910;28;20061;-62
2023/05/26 00:44:23;;;;;;;44.13;10.17;;;;;;;;;;5029059;28;20049;-61
2023/05/26 00:46:49;;;;;;;47.60;8.63;;;;;;;;;;5028552;28;20045;-61
2023/05/26 00:49:15;;;;;;;49.97;9.17;;;;;;;;;;5028731;28;20060;-62
2023/05/26 00:51:43;;;;;;;48.47;10.13;;;;;;;;;;5028868;28;20103;-62
2023/05/26 00:54:09;;;;;;;59.80;10.37;;;;;;;;;;5028892;28;20044;-62
2023/05/26 00:56:36;;;;;;;44.53;9.37;;;;;;;;;;5028903;28;20060;-62
2023/05/26 00:59:05;;;;;;;40.07;8.77;;;;;;;;;;5029100;28;20042;-62
2023/05/26 01:01:31;;;;;;;50.67;12.07;;;;;;;;;;5028461;28;20045;-62
2023/05/26 01:03:58;;;;;;;40.60;10.40;;;;;;;;;;5028895;28;20060;-62
2023/05/26 01:06:24;;;;;;;48.73;10.30;;;;;;;;;;5028708;28;20099;-62
2023/05/26 01:08:50;;;;;;;50.47;10.10;;;;;;;;;;5040311;28;20080;-62
2023/05/26 01:11:22;;;;;;;34.70;7.60;;;;;;;;;;5048398;28;20431;-61
2023/05/26 01:13:53;;;;;;;45.47;8.67;;;;;;;;;;5048707;28;20053;-61
2023/05/26 01:16:22;;;;;;;40.10;8.57;;;;;;;;;;5048429;28;20473;-62
2023/05/26 01:18:52;;;;;;;38.90;9.27;;;;;;;;;;5048587;28;20049;-62
2023/05/26 01:21:21;;;;;;;43.13;9.60;;;;;;;;;;5047602;28;20503;-62
2023/05/26 01:23:50;;;;;;;40.07;9.50;;;;;;;;;;5047774;28;20053;-62
2023/05/26 01:26:32;;;;;;;40.07;8.93;;;;;;;;;;5048574;28;20047;-62
2023/05/26 01:29:00;;;;;;;48.23;9.00;;;;;;;;;;5051727;28;20048;-62
2023/05/26 01:31:26;;;;;;;48.43;10.27;;;;;;;;;;5052261;28;20082;-62
2023/05/26 01:33:52;;;;;;;52.30;12.23;;;;;;;;;;5052596;28;20060;-62
2023/05/26 01:36:18;;;;;;;52.77;11.30;;;;;;;;;;5052291;28;20037;-62
2023/05/26 01:38:44;;;;;;;47.37;8.80;;;;;;;;;;5035034;28;20045;-62
2023/05/26 01:41:10;;;;;;;51.63;10.57;;;;;;;;;;5032319;28;20041;-62
2023/05/26 01:43:42;;;;;;;43.53;9.77;;;;;;;;;;5032156;28;20046;-62
2023/05/26 01:46:11;;;;;;;55.07;9.20;;;;;;;;;;5032357;28;20061;-62
2023/05/26 01:48:40;;;;;;;51.93;10.93;;;;;;;;;;5032526;28;20052;-62
2023/05/26 01:51:06;;;;;;;43.00;9.67;;;;;;;;;;5031830;28;20088;-62
2023/05/26 01:53:33;;;;;;;43.67;9.63;;;;;;;;;;5032028;28;20049;-62
2023/05/26 01:56:00;;;;;;;36.60;8.93;;;;;;;;;;5031515;28;20073;-62
2023/05/26 01:58:26;;;;;;;33.40;8.33;;;;;;;;;;5032176;28;20492;-62
2023/05/26 02:00:53;;;;;;;46.53;9.00;;;;;;;;;;5031436;28;20048;-62
2023/05/26 02:03:20;;;;;;;49.53;8.93;;;;;;;;;;5032120;28;20049;-62
2023/05/26 02:05:46;;;;;;;54.80;9.83;;;;;;;;;;5031986;28;20052;-62
2023/05/26 02:08:12;;;;;;;41.30;8.67;;;;;;;;;;5031706;28;20519;-62
2023/05/26 02:10:38;;;;;;;53.70;11.57;;;;;;;;;;5031784;28;20087;-62
2023/05/26 02:13:05;;;;;;;48.90;9.60;;;;;;;;;;5031566;28;20500;-62
2023/05/26 02:15:31;;;;;;;47.53;8.43;;;;;;;;;;5031485;28;20042;-63
2023/05/26 02:17:57;;;;;;;44.70;9.50;;;;;;;;;;5031531;28;20050;-63
2023/05/26 02:20:26;;;;;;;49.07;9.40;;;;;;;;;;5031938;28;20056;-62
2023/05/26 02:22:52;;;;;;;36.97;9.67;;;;;;;;;;5031169;28;20053;-62
2023/05/26 02:25:19;;;;;;;43.47;8.57;;;;;;;;;;5031589;28;20052;-62
2023/05/26 02:27:45;;;;;;;45.03;8.43;;;;;;;;;;5031419;28;20515;-62
2023/05/26 02:30:11;;;;;;;46.63;8.80;;;;;;;;;;5031386;28;20045;-62
2023/05/26 02:32:38;;;;;;;36.37;8.03;;;;;;;;;;5031037;28;20065;-62
2023/05/26 02:35:05;;;;;;;40.00;8.10;;;;;;;;;;5031192;28;20420;-62
2023/05/26 02:37:31;;;;;;;58.67;9.33;;;;;;;;;;5038821;28;20565;-62
2023/05/26 02:39:57;;;;;;;38.47;8.63;;;;;;;;;;5051130;28;20041;-62
2023/05/26 02:42:24;;;;;;;38.43;8.20;;;;;;;;;;5051177;28;20048;-62
2023/05/26 02:44:50;;;;;;;35.93;8.17;;;;;;;;;;5051018;28;20392;-62
2023/05/26 02:47:16;;;;;;;39.77;10.20;;;;;;;;;;5051157;28;20053;-62
2023/05/26 02:49:42;;;;;;;28.83;6.83;;;;;;;;;;5050775;28;20415;-62
2023/05/26 02:52:08;;;;;;;31.90;7.50;;;;;;;;;;5050996;28;20049;-62
2023/05/26 02:54:34;;;;;;;27.57;7.57;;;;;;;;;;5041853;28;20056;-62
2023/05/26 02:57:00;;;;;;;32.53;6.37;;;;;;;;;;5030584;28;20730;-62
2023/05/26 02:59:26;;;;;;;24.73;5.93;;;;;;;;;;5030823;28;20057;-62
2023/05/26 03:01:52;;;;;;;37.47;8.10;;;;;;;;;;5030659;28;20103;-62
2023/05/26 03:04:18;;;;;;;34.53;7.73;;;;;;;;;;5031048;28;20049;-62
2023/05/26 03:06:45;;;;;;;33.33;8.90;;;;;;;;;;5030514;28;20049;-62
2023/05/26 03:09:11;;;;;;;44.17;9.17;;;;;;;;;;5030672;28;20042;-62
2023/05/26 03:11:37;;;;;;;35.37;8.03;;;;;;;;;;5030291;28;20045;-62
2023/05/26 03:14:03;;;;;;;54.20;8.80;;;;;;;;;;5030923;28;20112;-62
2023/05/26 03:16:29;;;;;;;30.77;8.30;;;;;;;;;;5030594;28;20049;-62
2023/05/26 03:18:55;;;;;;;43.03;8.10;;;;;;;;;;5030633;28;20474;-62
2023/05/26 03:21:21;;;;;;;46.30;8.77;;;;;;;;;;5030109;28;20042;-62
2023/05/26 03:23:47;;;;;;;44.73;9.23;;;;;;;;;;5030339;28;20492;-62
2023/05/26 03:26:13;;;;;;;62.03;11.27;;;;;;;;;;5029781;28;20554;-62
2023/05/26 03:28:39;;;;;;;41.73;10.00;;;;;;;;;;5035759;28;20048;-62
2023/05/26 03:31:06;;;;;;;37.80;9.97;;;;;;;;;;5049812;28;20045;-62
2023/05/26 03:33:32;;;;;;;63.63;11.13;;;;;;;;;;5048695;28;20067;-62
2023/05/26 03:36:01;;;;;;;41.27;9.10;;;;;;;;;;5050057;28;20120;-62
2023/05/26 03:38:27;;;;;;;53.60;10.83;;;;;;;;;;5049777;28;20458;-62
2023/05/26 03:40:53;;;;;;;47.37;10.50;;;;;;;;;;5048478;28;20040;-62
2023/05/26 03:43:19;;;;;;;51.47;9.53;;;;;;;;;;5049651;28;20036;-62
2023/05/26 03:45:46;;;;;;;53.67;9.40;;;;;;;;;;5049610;28;20104;-62
2023/05/26 03:48:14;;;;;;;43.03;8.80;;;;;;;;;;5049618;28;20059;-62
2023/05/26 03:50:41;;;;;;;49.23;11.50;;;;;;;;;;5048754;28;20602;-62
2023/05/26 03:53:08;;;;;;;54.80;10.10;;;;;;;;;;5049473;28;20053;-62
2023/05/26 03:55:34;;;;;;;47.47;10.83;;;;;;;;;;5048470;28;20048;-62
2023/05/26 03:58:00;;;;;;;45.77;10.87;;;;;;;;;;5049521;28;20045;-62
2023/05/26 04:00:32;;;;;;;49.90;11.00;;;;;;;;;;5049463;28;20072;-62
2023/05/26 04:02:58;;;;;;;59.07;12.00;;;;;;;;;;5048974;28;20056;-62
2023/05/26 04:05:24;;;;;;;47.70;11.83;;;;;;;;;;5049491;28;20495;-61
2023/05/26 04:07:50;;;;;;;52.33;11.90;;;;;;;;;;5049460;28;20083;-62
2023/05/26 04:10:17;;;;;;;43.53;10.50;;;;;;;;;;5049254;28;20054;-62
2023/05/26 04:12:43;;;;;;;44.20;10.00;;;;;;;;;;5047644;28;20047;-62
2023/05/26 04:15:09;;;;;;;62.13;11.30;;;;;;;;;;5049175;28;20045;-62
2023/05/26 04:17:39;;;;;;;51.63;10.30;;;;;;;;;;5047693;28;20088;-62
2023/05/26 04:20:06;;;;;;;61.00;12.00;;;;;;;;;;5049148;28;20120;-62
2023/05/26 04:22:32;;;;;;;52.07;10.37;;;;;;;;;;5048528;28;20052;-62
2023/05/26 04:24:58;;;;;;;51.00;11.07;;;;;;;;;;5049087;28;20049;-62
2023/05/26 04:27:25;;;;;;;51.20;10.03;;;;;;;;;;5048732;28;20041;-62
2023/05/26 04:29:52;;;;;;;38.93;10.37;;;;;;;;;;5049088;28;20057;-62
2023/05/26 04:32:20;;;;;;;49.23;11.23;;;;;;;;;;5048396;28;20061;-62
2023/05/26 04:34:46;;;;;;;43.63;9.70;;;;;;;;;;5048600;28;20063;-62
2023/05/26 04:37:12;;;;;;;45.77;11.00;;;;;;;;;;5048764;28;20049;-62
2023/05/26 04:39:38;;;;;;;56.17;11.07;;;;;;;;;;5048695;28;20122;-62
2023/05/26 04:42:04;;;;;;;46.20;12.47;;;;;;;;;;5031240;28;20056;-61
2023/05/26 04:44:32;;;;;;;52.23;11.20;;;;;;;;;;5028741;28;20514;-62
2023/05/26 04:47:00;;;;;;;43.70;11.70;;;;;;;;;;5028311;28;20056;-62
2023/05/26 04:49:29;;;;;;;43.07;9.83;;;;;;;;;;5028710;28;20045;-62
2023/05/26 04:51:56;;;;;;;60.13;11.90;;;;;;;;;;5028542;28;20463;-62
2023/05/26 04:54:22;;;;;;;45.33;9.47;;;;;;;;;;5027254;28;20136;-62
2023/05/26 04:56:48;;;;;;;41.97;9.83;;;;;;;;;;5027840;28;20507;-62
2023/05/26 04:59:17;;;;;;;51.70;11.83;;;;;;;;;;5035657;28;20063;-62
2023/05/26 05:01:44;;;;;;;55.93;11.57;;;;;;;;;;5027162;28;20072;-62
2023/05/26 05:04:10;;;;;;;47.60;12.03;;;;;;;;;;5028667;28;20041;-62
2023/05/26 05:06:36;;;;;;;59.40;13.60;;;;;;;;;;5028295;28;20038;-62
2023/05/26 05:09:02;;;;;;;44.80;10.63;;;;;;;;;;5028351;28;20076;-62
2023/05/26 05:11:28;;;;;;;54.70;11.97;;;;;;;;;;5028339;28;20419;-62
2023/05/26 05:13:55;;;;;;;45.27;11.57;;;;;;;;;;5028256;28;21098;-62
2023/05/26 05:16:21;;;;;;;54.23;11.67;;;;;;;;;;5028712;28;20067;-62
2023/05/26 05:18:47;;;;;;;55.70;11.67;;;;;;;;;;5035950;28;20053;-62
2023/05/26 05:21:13;;;;;;;52.70;10.93;;;;;;;;;;5048441;28;20060;-62
2023/05/26 05:23:39;;;;;;;52.40;11.17;;;;;;;;;;5044600;28;20054;-62
2023/05/26 05:26:05;;;;;;;56.67;12.77;;;;;;;;;;5028114;28;20385;-62
2023/05/26 05:28:32;;;;;;;42.53;10.53;;;;;;;;;;5030581;28;20090;-62
2023/05/26 05:30:58;;;;;;;52.00;11.60;;;;;;;;;;5045774;28;20048;-62
2023/05/26 05:33:24;;;;;;;52.83;10.20;;;;;;;;;;5046777;28;20052;-62
2023/05/26 05:35:50;;;;;;;53.10;10.97;;;;;;;;;;5035638;28;20107;-62
2023/05/26 05:38:16;;;;;;;38.17;9.23;;;;;;;;;;5028037;28;20053;-62
2023/05/26 05:40:42;;;;;;;58.13;11.30;;;;;;;;;;5027874;28;20679;-62
2023/05/26 05:43:08;;;;;;;45.77;9.47;;;;;;;;;;5030850;28;20057;-62
2023/05/26 05:45:34;;;;;;;48.33;10.47;;;;;;;;;;5028337;28;20056;-62
2023/05/26 05:48:00;;;;;;;50.67;9.77;;;;;;;;;;5028266;28;20128;-62
2023/05/26 05:50:26;;;;;;;58.33;11.70;;;;;;;;;;5026832;28;20045;-62
2023/05/26 05:52:53;;;;;;;54.80;10.37;;;;;;;;;;5028150;28;20393;-62
2023/05/26 05:55:19;;;;;;;59.53;10.00;;;;;;;;;;5028123;28;20088;-61
2023/05/26 05:57:45;;;;;;;46.60;12.60;;;;;;;;;;5028094;28;20052;-62
2023/05/26 06:00:11;;;;;;;64.23;11.43;;;;;;;;;;5027762;28;20053;-65
2023/05/26 06:02:37;;;;;;;51.77;10.50;;;;;;;;;;5027951;28;20045;-64
2023/05/26 06:05:04;;;;;;;45.03;10.07;;;;;;;;;;5027770;28;20045;-62
2023/05/26 06:07:30;;;;;;;51.53;11.47;;;;;;;;;;5028087;28;20137;-63
2023/05/26 06:09:57;;;;;;;45.47;8.97;;;;;;;;;;5027637;28;20045;-63
2023/05/26 06:12:23;;;;;;;42.33;9.07;;;;;;;;;;5027557;28;20045;-62
2023/05/26 06:14:49;;;;;;;44.03;8.73;;;;;;;;;;5030673;28;20041;-62
2023/05/26 06:17:15;;;;;;;41.03;9.13;;;;;;;;;;5031164;28;20510;-62
2023/05/26 06:19:41;;;;;;;42.00;9.07;;;;;;;;;;5029738;28;20131;-62
2023/05/26 06:22:07;;;;;;;41.10;8.63;;;;;;;;;;5030811;28;20046;-62
2023/05/26 06:24:33;;;;;;;49.70;8.67;;;;;;;;;;5030259;28;20060;-62
2023/05/26 06:27:00;;;;;;;37.03;7.40;;;;;;;;;;5031068;28;20122;-62
2023/05/26 06:29:26;;;;;;;45.07;8.30;;;;;;;;;;5031863;28;20057;-62
2023/05/26 06:31:52;;;;;;;44.23;8.00;;;;;;;;;;5047792;28;20052;-62
2023/05/26 06:34:18;;;;;;;40.03;9.17;;;;;;;;;;5041496;28;20060;-63
2023/05/26 06:36:44;;;;;;;38.27;8.67;;;;;;;;;;5060548;28;20051;-63
2023/05/26 06:39:10;;;;;;;37.87;7.70;;;;;;;;;;5050647;28;20045;-62
2023/05/26 06:41:36;;;;;;;37.63;7.30;;;;;;;;;;5050703;28;20041;-63
2023/05/26 06:44:02;;;;;;;34.53;7.47;;;;;;;;;;5050781;28;20060;-63
2023/05/26 06:46:28;;;;;;;45.17;7.67;;;;;;;;;;5050488;28;20044;-62
2023/05/26 06:48:54;;;;;;;36.60;6.93;;;;;;;;;;5050140;28;20094;-62
2023/05/26 06:51:22;;;;;;;30.50;6.77;;;;;;;;;;5035843;28;20676;-62
2023/05/26 06:53:48;;;;;;;45.33;9.20;;;;;;;;;;5047523;28;20068;-63
2023/05/26 06:56:14;;;;;;;42.87;8.93;;;;;;;;;;5049537;28;20056;-63
2023/05/26 06:58:40;;;;;;;42.03;8.80;;;;;;;;;;5047776;28;20450;-63
2023/05/26 07:01:07;;;;;;;31.83;5.80;;;;;;;;;;5050358;28;20056;-63
2023/05/26 07:03:33;;;;;;;36.73;6.37;;;;;;;;;;5049753;28;20041;-63
2023/05/26 07:06:00;;;;;;;34.07;7.27;;;;;;;;;;5048825;28;20486;-63
2023/05/26 07:08:26;;;;;;;34.27;7.03;;;;;;;;;;5043356;28;20091;-63
2023/05/26 07:10:52;;;;;;;31.83;6.43;;;;;;;;;;5050229;28;20041;-63
2023/05/26 07:13:19;;;;;;;34.93;7.50;;;;;;;;;;5049365;28;20064;-63
2023/05/26 07:15:46;;;;;;;34.13;6.93;;;;;;;;;;5049511;28;20044;-63
2023/05/26 07:18:12;;;;;;;28.03;7.00;;;;;;;;;;5049663;28;20563;-63
2023/05/26 07:20:38;;;;;;;32.83;6.07;;;;;;;;;;5049491;28;20049;-63
2023/05/26 07:23:07;;;;;;;26.80;6.30;;;;;;;;;;5049304;28;20048;-66
2023/05/26 07:25:33;;;;;;;31.17;5.50;;;;;;;;;;5036054;28;20041;-63
2023/05/26 07:27:59;;;;;;;31.17;6.43;;;;;;;;;;5049882;28;20045;-63
2023/05/26 07:30:25;;;;;;;28.20;5.80;;;;;;;;;;5048479;28;20095;-63
2023/05/26 07:32:51;;;;;;;22.67;5.77;;;;;;;;;;5047541;28;20131;-63
2023/05/26 07:35:17;;;;;;;25.13;5.53;;;;;;;;;;5047837;28;20114;-63
2023/05/26 07:37:43;;;;;;;29.20;5.17;;;;;;;;;;5047828;28;20055;-63
2023/05/26 07:40:09;;;;;;;26.00;5.47;;;;;;;;;;5047811;28;20045;-63
2023/05/26 07:42:36;;;;;;;26.47;5.70;;;;;;;;;;5031033;28;20226;-63
2023/05/26 07:45:02;;;;;;;32.90;5.90;;;;;;;;;;5031716;28;20079;-63
2023/05/26 07:47:31;;;;;;;17.60;5.17;;;;;;;;;;5028762;28;20042;-63
2023/05/26 07:50:01;;;;;;;26.13;6.37;;;;;;;;;;5029194;28;20049;-63
2023/05/26 07:52:28;;;;;;;28.17;5.80;;;;;;;;;;5029016;28;20084;-63
2023/05/26 07:54:54;;;;;;;29.50;5.60;;;;;;;;;;5028839;28;20045;-63
2023/05/26 07:57:20;;;;;;;22.97;4.60;;;;;;;;;;5027737;28;20443;-64
2023/05/26 07:59:46;;;;;;;25.40;5.87;;;;;;;;;;5029096;28;20107;-63
2023/05/26 08:02:12;;;;;;;23.83;5.07;;;;;;;;;;5029153;28;20099;-63
2023/05/26 08:04:39;;;;;;;27.53;5.60;;;;;;;;;;5028999;28;20053;-62
2023/05/26 08:07:05;;;;;;;18.47;4.93;;;;;;;;;;5028593;28;20144;-62
2023/05/26 08:09:31;;;;;;;22.87;5.37;;;;;;;;;;5028688;28;20140;-62
2023/05/26 08:11:57;;;;;;;27.37;6.93;;;;;;;;;;5028556;28;20102;-62
2023/05/26 08:14:24;;;;;;;18.20;5.07;;;;;;;;;;5028325;28;20050;-62
2023/05/26 08:16:50;;;;;;;18.73;5.10;;;;;;;;;;5028849;28;20411;-62
2023/05/26 08:19:16;;;;;;;18.67;5.53;;;;;;;;;;5028502;28;20561;-62
2023/05/26 08:21:42;;;;;;;16.30;5.77;;;;;;;;;;5028496;28;20137;-62
2023/05/26 08:24:08;;;;;;;14.87;4.63;;;;;;;;;;5010798;28;20052;-62
2023/05/26 08:26:34;;;;;;;20.60;5.50;;;;;;;;;;5027898;28;20577;-62
2023/05/26 08:29:00;;;;;;;21.57;4.43;;;;;;;;;;5028532;28;20152;-62
2023/05/26 08:31:26;;;;;;;18.13;4.40;;;;;;;;;;5028147;28;20531;-62
2023/05/26 08:33:53;;;;;;;21.70;5.03;;;;;;;;;;5028443;28;20060;-62
2023/05/26 08:36:19;;;;;;;24.90;5.70;;;;;;;;;;5028249;28;20412;-62
2023/05/26 08:38:46;;;;;;;24.40;5.97;;;;;;;;;;5027672;28;20063;-63
2023/05/26 08:41:15;;;;;;;16.80;4.47;;;;;;;;;;5028427;28;20045;-63
2023/05/26 08:43:51;;;;;;;20.13;5.43;;;;;;;;;;5028331;28;20512;-63
2023/05/26 08:46:18;;;;;;;16.47;5.33;;;;;;;;;;5028367;28;20041;-63
2023/05/26 08:48:44;;;;;;;18.17;5.47;;;;;;;;;;5027859;28;20435;-63
2023/05/26 08:51:11;;;;;;;13.93;5.17;;;;;;;;;;5028100;28;20095;-63
2023/05/26 08:53:37;;;;;;;16.57;5.90;;;;;;;;;;5028151;28;20511;-63
2023/05/26 08:56:04;;;;;;;17.73;5.90;;;;;;;;;;5028136;28;20057;-63
2023/05/26 08:58:31;;;;;;;17.33;5.47;;;;;;;;;;5027323;28;20088;-63
2023/05/26 09:00:58;;;;;;;21.80;6.07;;;;;;;;;;5027953;28;20052;-63
2023/05/26 09:03:24;;;;;;;20.60;5.60;;;;;;;;;;5026928;28;20455;-63
2023/05/26 09:05:50;;;;;;;17.40;4.87;;;;;;;;;;5027451;28;20053;-63
2023/05/26 09:08:16;;;;;;;20.47;5.33;;;;;;;;;;5027787;28;20038;-63
2023/05/26 09:10:42;;;;;;;15.50;5.17;;;;;;;;;;5028058;28;20034;-63
2023/05/26 09:13:09;;;;;;;18.33;4.13;;;;;;;;;;5027603;28;20045;-63
2023/05/26 09:15:36;;;;;;;14.93;4.00;;;;;;;;;;5027625;28;20050;-63
2023/05/26 09:18:09;;;;;;;17.03;4.47;;;;;;;;;;5027941;28;20451;-63
2023/05/26 09:20:42;;;;;;;16.73;4.63;;;;;;;;;;5027040;28;20045;-62
2023/05/26 09:23:08;;;;;;;13.30;3.83;;;;;;;;;;5027611;28;20500;-62
2023/05/26 09:25:34;;;;;;;15.47;3.73;;;;;;;;;;5027774;28;21131;-63
2023/05/26 09:28:02;;;;;;;16.40;4.07;;;;;;;;;;5027860;28;20041;-62
2023/05/26 09:30:29;;;;;;;15.43;3.80;;;;;;;;;;5027150;28;20051;-62
2023/05/26 09:32:55;;;;;;;13.90;4.53;;;;;;;;;;5027268;28;20068;-62
2023/05/26 09:35:21;;;;;;;12.47;3.90;;;;;;;;;;5027840;28;20060;-62
2023/05/26 09:37:47;;;;;;;12.70;3.20;;;;;;;;;;5026975;28;20042;-63
2023/05/26 09:40:18;;;;;;;12.07;3.60;;;;;;;;;;5027485;28;20048;-63
2023/05/26 09:42:53;;;;;;;13.03;3.87;;;;;;;;;;5027263;28;20096;-62
2023/05/26 09:45:19;;;;;;;13.27;3.13;;;;;;;;;;5027507;28;20057;-64
2023/05/26 09:47:45;;;;;;;13.47;3.13;;;;;;;;;;5027362;28;20049;-62
2023/05/26 09:50:11;;;;;;;11.77;3.00;;;;;;;;;;5031216;28;20048;-62
2023/05/26 09:52:38;;;;;;;10.33;3.40;;;;;;;;;;5031056;28;20060;-62
2023/05/26 09:55:04;;;;;;;13.37;3.90;;;;;;;;;;5031287;28;20052;-62
2023/05/26 09:57:31;;;;;;;13.97;3.87;;;;;;;;;;5031269;28;20459;-62
2023/05/26 09:59:57;;;;;;;16.77;3.73;;;;;;;;;;5031440;28;20060;-62
2023/05/26 10:02:25;;;;;;;15.77;3.60;;;;;;;;;;5030707;28;20045;-62
2023/05/26 10:04:52;;;;;;;14.10;3.50;;;;;;;;;;5031203;28;20053;-62
2023/05/26 10:07:19;;;;;;;13.10;3.30;;;;;;;;;;5031239;28;20107;-62
2023/05/26 10:09:48;;;;;;;14.27;3.93;;;;;;;;;;5031022;28;20049;-62
2023/05/26 10:12:16;;;;;;;13.77;3.50;;;;;;;;;;5030549;28;20375;-62
2023/05/26 10:14:42;;;;;;;11.37;3.00;;;;;;;;;;5030746;28;20080;-62
2023/05/26 10:17:08;;;;;;;15.40;3.77;;;;;;;;;;5030991;28;20046;-62
2023/05/26 10:19:34;;;;;;;13.23;4.03;;;;;;;;;;5030802;28;20463;-62
2023/05/26 10:22:05;;;;;;;10.70;2.87;;;;;;;;;;5030966;28;20085;-62
2023/05/26 10:24:34;;;;;;;9.07;3.00;;;;;;;;;;5030601;28;20041;-63
2023/05/26 10:27:03;;;;;;;13.47;3.63;;;;;;;;;;5030603;28;20045;-63
2023/05/26 10:29:33;;;;;;;16.73;4.28;;;;;;;;;;5033348;28;20076;-63
2023/05/26 10:31:59;;;;;;;10.57;3.05;;;;;;;;;;5048938;28;20060;-63
2023/05/26 10:34:39;;;;;;;15.10;3.70;;;;;;;;;;5049153;28;20128;-63
2023/05/26 10:37:15;;;;;;;12.60;3.60;;;;;;;;;;5048842;28;20044;-63
2023/05/26 10:39:41;;;;;;;12.82;3.70;;;;;;;;;;5049128;28;20530;-63
2023/05/26 10:42:17;;;;;;;10.00;3.28;;;;;;;;;;5049291;28;20041;-63
2023/05/26 10:44:45;;;;;;;12.55;3.95;;;;;;;;;;5049008;28;20052;-63
2023/05/26 10:47:15;;;;;;;12.65;3.45;;;;;;;;;;5050226;28;20068;-63
2023/05/26 10:49:42;;;;;;;14.80;3.83;;;;;;;;;;5049658;28;20076;-63
2023/05/26 10:52:13;;;;;;;11.65;3.60;;;;;;;;;;5050383;28;20053;-63
2023/05/26 10:54:39;;;;;;;10.70;3.47;;;;;;;;;;5050627;28;20053;-63
2023/05/26 10:57:06;;;;;;;9.52;3.78;;;;;;;;;;5050042;28;20041;-63
2023/05/26 10:59:33;;;;;;;13.13;4.15;;;;;;;;;;5049197;28;20400;-63
2023/05/26 11:02:07;;;;;;;19.83;4.85;;;;;;;;;;5049813;28;20128;-63
2023/05/26 11:04:43;;;;;;;14.07;3.83;;;;;;;;;;5049639;28;20072;-63
2023/05/26 11:07:17;;;;;;;10.60;3.75;;;;;;;;;;5050142;28;20061;-63
2023/05/26 11:10:01;;;;;;;16.88;3.80;;;;;;;;;;5049841;28;20080;-63
2023/05/26 11:12:31;;;;;;;16.38;4.00;;;;;;;;;;5049264;28;20092;-63
2023/05/26 11:14:57;;;;;;;10.73;3.60;;;;;;;;;;5044623;28;20483;-63
2023/05/26 11:17:24;;;;;;;13.60;3.92;;;;;;;;;;5049487;28;20041;-63
2023/05/26 11:19:55;;;;;;;13.10;3.67;;;;;;;;;;5049257;28;20569;-63
2023/05/26 11:22:21;;;;;;;12.38;4.18;;;;;;;;;;5049193;28;20049;-63
2023/05/26 11:24:52;;;;;;;10.48;3.28;;;;;;;;;;5049394;28;20171;-63
2023/05/26 11:27:18;;;;;;;11.85;3.72;;;;;;;;;;5035525;28;20048;-63
2023/05/26 11:29:49;;;;;;;10.35;3.78;;;;;;;;;;5048385;28;20451;-63
2023/05/26 11:32:15;;;;;;;15.27;4.03;;;;;;;;;;5047805;28;20071;-63
2023/05/26 11:34:41;;;;;;;11.25;3.88;;;;;;;;;;5047916;28;20055;-63
2023/05/26 11:37:08;;;;;;;9.88;3.85;;;;;;;;;;5044507;28;20366;-63
2023/05/26 11:39:35;;;;;;;11.20;3.60;;;;;;;;;;5047791;28;20044;-63
2023/05/26 11:42:10;;;;;;;9.32;3.35;;;;;;;;;;5027945;28;20128;-63
2023/05/26 11:44:36;;;;;;;10.63;3.38;;;;;;;;;;5027671;28;20134;-63
2023/05/26 11:47:04;;;;;;;11.90;3.90;;;;;;;;;;5027679;28;20531;-63
2023/05/26 11:49:30;;;;;;;13.50;4.25;;;;;;;;;;5029014;28;20045;-63
2023/05/26 11:51:56;;;;;;;7.75;3.10;;;;;;;;;;5029406;28;20498;-63
2023/05/26 11:54:22;;;;;;;14.90;3.67;;;;;;;;;;5041187;28;20049;-63
2023/05/26 11:56:49;;;;;;;9.55;3.08;;;;;;;;;;5048233;28;20503;-63
2023/05/26 11:59:19;;;;;;;14.77;3.25;;;;;;;;;;5034951;28;20049;-63
2023/05/26 12:01:45;;;;;;;14.45;3.08;;;;;;;;;;5029076;28;20518;-63
2023/05/26 12:04:11;;;;;;;12.63;3.30;;;;;;;;;;5028906;28;20079;-63
2023/05/26 12:06:44;;;;;;;14.10;3.53;;;;;;;;;;5028526;28;20100;-64
2023/05/26 12:09:11;;;;;;;10.77;3.65;;;;;;;;;;5028887;28;20049;-63
2023/05/26 12:11:41;;;;;;;16.40;4.03;;;;;;;;;;5028476;28;20049;-63
2023/05/26 12:14:14;;;;;;;9.02;3.85;;;;;;;;;;5028777;28;20053;-63
2023/05/26 12:16:43;;;;;;;11.90;3.70;;;;;;;;;;5028460;28;20085;-63
2023/05/26 12:19:10;;;;;;;7.38;3.55;;;;;;;;;;5028703;28;20526;-63
2023/05/26 12:21:41;;;;;;;9.68;3.42;;;;;;;;;;5028444;28;20361;-63
2023/05/26 12:24:07;;;;;;;8.57;2.92;;;;;;;;;;5028537;28;20052;-63
2023/05/26 12:26:33;;;;;;;14.70;3.85;;;;;;;;;;5028557;28;20049;-63
2023/05/26 12:29:06;;;;;;;11.32;3.70;;;;;;;;;;5028253;28;20057;-63
2023/05/26 12:31:38;;;;;;;8.02;3.40;;;;;;;;;;5028535;28;20065;-63
2023/05/26 12:34:04;;;;;;;8.80;3.03;;;;;;;;;;5028501;28;20666;-63
2023/05/26 12:36:31;;;;;;;15.25;3.95;;;;;;;;;;5028062;28;20098;-63
2023/05/26 12:38:57;;;;;;;12.13;3.33;;;;;;;;;;5028398;28;20139;-63
2023/05/26 12:41:23;;;;;;;13.90;3.97;;;;;;;;;;5027872;28;20045;-63
2023/05/26 12:43:49;;;;;;;10.50;3.60;;;;;;;;;;5028301;28;20111;-63
2023/05/26 12:46:15;;;;;;;11.95;3.80;;;;;;;;;;5028086;28;20131;-63
2023/05/26 12:48:41;;;;;;;9.68;3.83;;;;;;;;;;5028137;28;20056;-63
2023/05/26 12:51:07;;;;;;;9.85;3.60;;;;;;;;;;5027721;28;20045;-63
2023/05/26 12:53:33;;;;;;;12.07;3.53;;;;;;;;;;5028019;28;20063;-63
2023/05/26 12:55:59;;;;;;;10.93;3.72;;;;;;;;;;5028105;28;20052;-63
2023/05/26 12:58:25;;;;;;;11.10;3.85;;;;;;;;;;5027382;28;20056;-63
2023/05/26 13:00:52;;;;;;;11.18;3.65;;;;;;;;;;5028214;28;20492;-63
2023/05/26 13:03:21;;;;;;;10.80;3.47;;;;;;;;;;5028052;28;20049;-63
2023/05/26 13:05:49;;;;;;;10.48;3.97;;;;;;;;;;5027856;28;20057;-63
2023/05/26 13:08:15;;;;;;;13.38;3.80;;;;;;;;;;5028105;28;20428;-63
2023/05/26 13:10:41;;;;;;;14.43;4.68;;;;;;;;;;5027997;28;20753;-63
2023/05/26 13:13:07;;;;;;;14.93;4.30;;;;;;;;;;5030227;28;20118;-63
2023/05/26 13:15:33;;;;;;;13.50;4.18;;;;;;;;;;5034454;28;20053;-63
2023/05/26 13:17:59;;;;;;;9.10;3.75;;;;;;;;;;5032029;28;20060;-63
2023/05/26 13:20:26;;;;;;;13.23;4.15;;;;;;;;;;5027941;28;20037;-63
2023/05/26 13:22:52;;;;;;;14.70;4.22;;;;;;;;;;5027347;28;20041;-63
2023/05/26 13:25:18;;;;;;;14.55;3.97;;;;;;;;;;5032101;28;20041;-63
2023/05/26 13:27:44;;;;;;;16.17;5.03;;;;;;;;;;5031671;28;20045;-63
2023/05/26 13:30:10;;;;;;;10.80;4.60;;;;;;;;;;5032858;28;20052;-63
2023/05/26 13:32:36;;;;;;;12.18;4.13;;;;;;;;;;5038266;28;20119;-63
2023/05/26 13:35:02;;;;;;;10.77;4.45;;;;;;;;;;5042976;28;20053;-63
2023/05/26 13:37:28;;;;;;;15.18;4.65;;;;;;;;;;5031674;28;20095;-64
2023/05/26 13:39:54;;;;;;;14.70;4.80;;;;;;;;;;5038517;28;20052;-63
2023/05/26 13:42:21;;;;;;;11.77;4.22;;;;;;;;;;5031870;28;20164;-64
2023/05/26 13:44:47;;;;;;;10.07;3.85;;;;;;;;;;5040835;28;20154;-64
2023/05/26 13:47:13;;;;;;;13.48;4.47;;;;;;;;;;5051371;28;20049;-64
2023/05/26 13:49:39;;;;;;;13.02;4.90;;;;;;;;;;5051591;28;20060;-64
2023/05/26 13:52:06;;;;;;;13.02;4.45;;;;;;;;;;5050761;28;20080;-63
2023/05/26 13:54:32;;;;;;;10.73;3.83;;;;;;;;;;5036213;28;20053;-63
2023/05/26 13:56:58;;;;;;;14.48;5.05;;;;;;;;;;5031066;28;20503;-63
2023/05/26 13:59:24;;;;;;;12.02;4.40;;;;;;;;;;5031698;28;20523;-63
2023/05/26 14:01:50;;;;;;;14.07;5.40;;;;;;;;;;5034994;28;20411;-63
2023/05/26 14:04:16;;;;;;;15.82;4.40;;;;;;;;;;5042561;28;20045;-64
2023/05/26 14:06:42;;;;;;;13.30;5.20;;;;;;;;;;5049210;28;20052;-64
2023/05/26 14:09:12;;;;;;;11.75;3.63;;;;;;;;;;5034910;28;20407;-64
2023/05/26 14:11:40;;;;;;;13.30;4.47;;;;;;;;;;5050934;28;20456;-63
2023/05/26 14:14:06;;;;;;;11.98;4.22;;;;;;;;;;5051028;28;20060;-63
2023/05/26 14:16:32;;;;;;;13.20;4.15;;;;;;;;;;5050407;28;20434;-63
2023/05/26 14:18:57;;;;;;;15.27;4.28;;;;;;;;;;5048363;28;20056;-63
2023/05/26 14:21:23;;;;;;;11.82;4.55;;;;;;;;;;5031196;28;20041;-63
2023/05/26 14:23:49;;;;;;;9.68;3.60;;;;;;;;;;5030575;28;20045;-63
2023/05/26 14:26:16;;;;;;;14.88;4.40;;;;;;;;;;5030586;28;20085;-63